Pearce, AZ (85625)

11:54 AM MST on July 27, 2016 (GMT -0700)
North of Ironwood Rd. | | Change Station

Elev 4365 ft 31.95 °N, 109.88 °W | Updated 12 seconds ago

Overcast
Overcast
90.2 °F
Feels Like 90 °F
N
0.0
Wind Variable Wind from NE
Gusts 2.0 mph

Today
High -- | Low -- °F
--% Chance of Precip.
Yesterday
High -- | Low -- °F
Precip. -- in
Pressure 29.95 in
Visibility 9.0 miles
Clouds Mostly Cloudy 13000 ft
Overcast 16000 ft
Heat Index 90 °F
Dew Point 60 °F
Humidity 37%
Rainfall 0.09 in
Snow Depth Not available.
5:31 AM 7:19 PM
Last Quarter, 40% visible
METAR KFHU 271758Z AUTO 28003KT 9SM BKN130 OVC160 29/14 A3018 RMK AO2 SLP140 T02870135 10288 20212 56004 $
Pressure 29.95 in
Visibility 9.0 miles
Clouds Mostly Cloudy 13000 ft
Overcast 16000 ft
Heat Index 90 °F
Dew Point 60 °F
Humidity 37%
Rainfall 0.09 in
Snow Depth Not available.
5:31 AM 7:19 PM
Last Quarter, 40% visible
METAR KFHU 271758Z AUTO 28003KT 9SM BKN130 OVC160 29/14 A3018 RMK AO2 SLP140 T02870135 10288 20212 56004 $

10-Day Weather Forecast

Almanac

Astronomy

Jul. 27, 2016 Rise Set
Actual Time
Civil Twilight
Nautical Twilight
Astronomical Twilight
Moon
Length of Visible Light
Length of Day
Tomorrow will be .
, % of the Moon is Illuminated

Today's Extremes

State Highs State Lows

Community

WunderPhotos

Upload Photos

1,927,897 photos uploaded!

WunderBlog® & News

Nearby

Air Quality

  Air Quality AQ Index Pollutant
Not available.

Snow Depth

Station Depth Elevation

Earthquake Activity

City Distance Mag. Time & Date
Minimum magnitude displayed is 2.5.

Coastal Water Temperatures

Place Temperature

Stations

Nearby Weather Stations

Station Location Temp. Windchill Dew Point Humidity Wind Precip. Elev Updated Type
                   

Watches & Warnings

There are currently no watches in effect.